Airfield :
LOGIN :

Register | Disclaimer

   EN    FR    IT 

 










Legend :    VFR   Marginal VFR   IFR   Intensive IFR   Very Intensive IFR
Visi :
Ceiling :
>= 8 km
>= 3000ft
5 to 8 km
1000 to 3000 ft
1500m to 5 km
500 to 1000 ft
800 to 1500m
200 to 500 ft
< 800m
< 200 ft
Symbols :   Thunderstorms  Fog  Heavy snow  Heavy precipitations  Wind > 20 kt
SIGMETs :     Misc.  Thunderstorms  Icing  Turbulence  Mountain Waves  Volcanic Ashes







- Airport Elevation : 1966 ft
- IATA code : SGE


EDGS - Siegerland

CURRENT METAR :
  • 240720Z 20009KT 170V230 0900 R31/P2000D -DZRA FG OVC001 09/09 Q1023

EXPIRED METARs :
  • 240650Z 20010KT 2000 -RA BR PRFG SCT001 BKN002 09/09 Q1023
  • 240620Z 20008KT 170V230 0600 R31/0800V1100U -RA FG VV/// 09/09 Q1022
  • 240550Z 20007KT 0600 R31/0750N -DZ FG VV/// 09/09 Q1022
  • 240520Z 19006KT 1200 R31/1500VP2000D -RADZ BR OVC001 09/09 Q1022

TAF TAF EDGS
Valid from the 24 at 07:00 until the 24 at 15:00 UTC


240625Z 2407/2415 20008KT 0500 -DZ FG OVC001
TEMPO 2407/2412 2000 BR SCT001 BKN010
BECMG 2412/2415 3500 BR BKN010
No reported NOTAMs for that airfield.



MET'MAP, your aeronautical weather chart ! - Copyright ORBIFLY December 2007 - Disclaimer

ORBIFLY MET'MAP TEAM :

Programming & Development : Alexandra Zaïnal
Concept & Development : Baudouin d'Aumeries
Co-Development & Prog : Marc-Olivier Méhu
Technical & hardware support : Manuel Goepfert

Contact : metmap@orbifly.com




SOURCES & CREDITS :

   NOAA